Time;durP1;ratioP1;P1;durP2;ratioP2;P2;SDS_P1;SDS_P2;PMS_P1;PMS_P2;Temp;Humidity;BMP_temperature;BMP_pressure;BME280_temperature;BME280_humidity;BME280_pressure;Samples;Min_cycle;Max_cycle;Signal;HPM_P1;HPM_P2
2024/02/16 00:00:33;;;;;;;7.53;5.20;;;;;;;11.33;92.16;97965.09;5189191;22;20587;-85
2024/02/16 00:02:35;;;;;;;8.13;5.73;;;;;;;11.35;92.75;97964.97;5164579;23;20577;-85
2024/02/16 00:04:39;;;;;;;7.90;5.30;;;;;;;11.35;92.68;97959.75;5191014;22;20540;-85
2024/02/16 00:06:43;;;;;;;8.00;5.80;;;;;;;11.37;93.94;97963.09;5163296;23;20647;-84
2024/02/16 00:08:47;;;;;;;8.57;5.80;;;;;;;11.37;93.60;97963.09;5162494;23;20663;-86
2024/02/16 00:10:51;;;;;;;7.00;5.67;;;;;;;11.36;93.02;97964.84;5161717;23;20585;-85
2024/02/16 00:12:54;;;;;;;7.00;5.00;;;;;;;11.35;93.54;97960.59;5189128;22;20604;-85
2024/02/16 00:14:58;;;;;;;6.83;5.30;;;;;;;11.37;94.28;97968.31;5160936;23;20585;-85
2024/02/16 00:17:03;;;;;;;7.70;5.63;;;;;;;11.37;93.08;97968.31;5135647;23;20612;-84
2024/02/16 00:19:06;;;;;;;6.80;5.60;;;;;;;11.37;94.55;97973.53;5162313;23;20676;-85
2024/02/16 00:21:09;;;;;;;8.23;5.47;;;;;;;11.33;93.44;97961.66;5162029;23;20659;-85
2024/02/16 00:23:13;;;;;;;8.00;5.30;;;;;;;11.33;93.50;97967.69;5161187;23;20573;-85
2024/02/16 00:25:15;;;;;;;7.00;5.73;;;;;;;11.32;93.51;97963.44;5162382;23;20599;-85
2024/02/16 00:27:19;;;;;;;7.00;5.30;;;;;;;11.33;93.20;97959.88;5161609;23;21162;-85
2024/02/16 00:29:23;;;;;;;9.70;4.97;;;;;;;11.33;94.25;97962.47;5187962;22;20578;-86
2024/02/16 00:31:26;;;;;;;8.23;5.37;;;;;;;11.33;93.53;97964.25;5189449;22;20583;-85
2024/02/16 00:33:29;;;;;;;7.80;5.67;;;;;;;11.34;94.61;97963.31;5161816;23;20620;-85
2024/02/16 00:35:33;;;;;;;7.00;5.47;;;;;;;11.32;94.52;97957.38;5158407;23;20583;-85
2024/02/16 00:37:37;;;;;;;10.73;5.73;;;;;;;11.31;93.71;97959.16;5160871;23;20576;-85
2024/02/16 00:39:41;;;;;;;7.90;5.67;;;;;;;11.32;93.94;97954.75;5161408;23;20663;-85
2024/02/16 00:41:46;;;;;;;8.00;6.13;;;;;;;11.33;94.21;97959.03;5186998;22;20683;-85
2024/02/16 00:43:52;;;;;;;7.03;5.67;;;;;;;11.32;93.06;97955.59;5161117;23;20579;-85
2024/02/16 00:45:55;;;;;;;7.83;5.67;;;;;;;11.30;94.02;97957.47;5133437;23;20639;-85
2024/02/16 00:47:59;;;;;;;8.60;6.00;;;;;;;11.30;94.06;97956.66;5160700;23;20615;-86
2024/02/16 00:50:05;;;;;;;7.90;5.37;;;;;;;11.30;93.97;97952.25;5188519;22;20590;-85
2024/02/16 00:52:10;;;;;;;6.53;5.33;;;;;;;11.30;93.89;97956.66;5160065;23;20618;-85
2024/02/16 00:54:13;;;;;;;7.67;5.60;;;;;;;11.31;94.38;97953.09;5162347;23;21146;-85
2024/02/16 00:56:15;;;;;;;7.17;5.20;;;;;;;11.31;94.37;97953.09;5160290;23;20576;-86
2024/02/16 00:58:19;;;;;;;9.20;6.20;;;;;;;11.29;95.33;97955.84;5159989;23;20557;-85
2024/02/16 01:00:24;;;;;;;8.63;5.70;;;;;;;11.29;94.75;97958.44;5137268;23;20589;-86
2024/02/16 01:02:27;;;;;;;9.67;5.43;;;;;;;11.28;95.14;97955.94;5187296;22;20575;-86
2024/02/16 01:04:32;;;;;;;8.40;6.03;;;;;;;11.28;94.02;97958.56;5188880;22;20653;-85
2024/02/16 01:06:35;;;;;;;7.80;5.63;;;;;;;11.27;93.85;97957.72;5188040;22;20615;-85
2024/02/16 01:08:38;;;;;;;5.67;4.90;;;;;;;11.25;94.04;97958.78;5186715;22;20583;-86
2024/02/16 01:10:42;;;;;;;7.83;5.27;;;;;;;11.26;94.21;97964.81;5188286;22;20666;-86
2024/02/16 01:12:45;;;;;;;6.30;4.60;;;;;;;11.25;94.59;97955.34;5161324;23;20648;-85
2024/02/16 01:14:48;;;;;;;8.80;5.43;;;;;;;11.26;94.33;97962.22;5186872;22;20586;-85
2024/02/16 01:16:53;;;;;;;6.37;4.90;;;;;;;11.26;93.33;97960.47;5187478;22;20579;-85
2024/02/16 01:18:56;;;;;;;9.50;5.00;;;;;;;11.25;93.76;97958.78;5161521;23;21420;-85
2024/02/16 01:21:00;;;;;;;9.03;5.63;;;;;;;11.25;94.62;97956.16;5161587;23;20575;-86
2024/02/16 01:23:04;;;;;;;6.83;4.77;;;;;;;11.25;94.16;97968.41;5188336;22;20565;-85
2024/02/16 01:25:09;;;;;;;8.97;5.20;;;;;;;11.25;93.52;97961.38;5136730;23;20613;-85
2024/02/16 01:27:12;;;;;;;6.37;4.97;;;;;;;11.25;94.84;97958.78;5135241;23;20569;-85
2024/02/16 01:29:15;;;;;;;10.27;5.30;;;;;;;11.26;93.65;97955.22;5161744;23;20588;-88
2024/02/16 01:31:19;;;;;;;10.50;6.57;;;;;;;11.26;93.80;97941.31;5136299;23;21347;-86
2024/02/16 01:33:23;;;;;;;8.97;5.77;;;;;;;11.27;95.09;97950.84;5161935;23;20603;-85
2024/02/16 01:35:26;;;;;;;8.57;5.93;;;;;;;11.25;93.86;97958.78;5160915;23;20564;-85
2024/02/16 01:37:30;;;;;;;6.27;4.90;;;;;;;11.25;95.06;97957.97;5187176;22;20924;-86
2024/02/16 01:39:33;;;;;;;8.73;5.10;;;;;;;11.25;94.02;97950.13;5162129;23;21502;-86
2024/02/16 01:41:39;;;;;;;14.53;5.60;;;;;;;11.25;95.36;97952.72;5160999;23;20606;-86
2024/02/16 01:43:42;;;;;;;7.40;4.80;;;;;;;11.24;94.92;97956.28;5188995;22;20556;-85
2024/02/16 01:45:46;;;;;;;8.67;5.00;;;;;;;11.25;95.28;97952.72;5160407;23;20564;-85
2024/02/16 01:47:51;;;;;;;7.43;5.30;;;;;;;11.22;94.20;97958.19;5187520;22;20605;-82
2024/02/16 01:49:56;;;;;;;8.13;5.47;;;;;;;11.22;93.56;97961.63;5188535;22;20559;-82
2024/02/16 01:51:59;;;;;;;7.17;5.00;;;;;;;11.21;94.46;97967.75;5161045;23;20603;-82
2024/02/16 01:54:02;;;;;;;7.13;5.97;;;;;;;11.22;94.26;97968.63;5187836;22;21085;-82
2024/02/16 01:56:06;;;;;;;7.50;5.37;;;;;;;11.21;93.67;97970.38;5187878;22;20560;-82
2024/02/16 01:58:09;;;;;;;8.10;6.00;;;;;;;11.20;95.01;97968.72;5161118;23;20974;-82
2024/02/16 02:00:14;;;;;;;7.77;5.40;;;;;;;11.19;94.67;97964.44;5158923;23;20918;-82
2024/02/16 02:02:18;;;;;;;11.13;5.40;;;;;;;11.18;94.40;97952.31;5163179;23;20556;-82
2024/02/16 02:04:21;;;;;;;14.57;9.03;;;;;;;11.17;94.73;97955.91;5189628;22;20572;-82
2024/02/16 02:06:26;;;;;;;11.07;7.13;;;;;;;11.18;94.37;97954.13;5162961;23;20623;-82
2024/02/16 02:08:29;;;;;;;11.43;5.97;;;;;;;11.18;95.47;97951.50;5160361;23;20630;-82
2024/02/16 02:10:32;;;;;;;8.77;6.00;;;;;;;11.17;93.66;97955.03;5189441;22;20575;-82
2024/02/16 02:12:36;;;;;;;12.27;6.03;;;;;;;11.15;95.11;97955.16;5137391;23;20609;-82
2024/02/16 02:14:39;;;;;;;10.03;6.07;;;;;;;11.15;93.64;97952.56;5188962;22;20619;-82
2024/02/16 02:16:42;;;;;;;7.30;5.40;;;;;;;11.15;94.36;97955.16;5160755;23;20592;-82
2024/02/16 02:18:57;;;;;;;8.30;6.20;;;;;;;11.13;95.57;97949.22;5160830;23;20577;-81
2024/02/16 02:21:00;;;;;;;7.93;6.00;;;;;;;11.14;94.38;97950.91;5162525;23;20655;-82
2024/02/16 02:23:05;;;;;;;8.37;5.83;;;;;;;11.15;93.93;97949.94;5185324;22;20559;-82
2024/02/16 02:25:10;;;;;;;7.40;5.30;;;;;;;11.14;93.93;97940.47;5189250;22;20551;-82
2024/02/16 02:27:13;;;;;;;9.10;5.70;;;;;;;11.13;93.70;97943.19;5186629;22;20582;-82
2024/02/16 02:29:16;;;;;;;9.43;7.50;;;;;;;11.12;95.39;97933.69;5189797;22;21180;-82
2024/02/16 02:31:20;;;;;;;8.20;5.90;;;;;;;11.12;95.55;97933.69;5163028;23;20596;-82
2024/02/16 02:33:23;;;;;;;14.10;9.10;;;;;;;11.11;94.02;97930.25;5163327;23;20707;-82
2024/02/16 02:35:26;;;;;;;10.23;6.90;;;;;;;11.09;95.03;97937.34;5189839;22;20632;-82
2024/02/16 02:37:29;;;;;;;7.10;5.60;;;;;;;11.10;94.51;97923.34;5162034;23;20583;-82
2024/02/16 02:39:34;;;;;;;9.93;6.30;;;;;;;11.11;95.71;97926.78;5138188;23;20577;-82
2024/02/16 02:41:37;;;;;;;10.33;6.60;;;;;;;11.12;94.34;97920.63;5161808;23;21016;-82
2024/02/16 02:43:41;;;;;;;11.70;6.80;;;;;;;11.12;95.72;97924.06;5188710;22;20544;-82
2024/02/16 02:45:45;;;;;;;9.70;7.17;;;;;;;11.13;96.36;97917.91;5161551;23;20587;-82
2024/02/16 02:47:48;;;;;;;7.97;5.93;;;;;;;11.13;94.44;97923.13;5162699;23;20596;-82
2024/02/16 02:49:51;;;;;;;7.80;6.20;;;;;;;11.13;95.87;97915.28;5189976;22;21095;-82
2024/02/16 02:51:55;;;;;;;9.97;6.40;;;;;;;11.14;94.98;97908.28;5163998;23;20576;-82
2024/02/16 02:53:58;;;;;;;8.57;6.80;;;;;;;11.13;95.08;97915.28;5138470;23;20640;-82
2024/02/16 02:56:02;;;;;;;10.47;6.87;;;;;;;11.11;94.43;97906.75;5162554;23;20603;-82
2024/02/16 02:58:05;;;;;;;10.57;6.27;;;;;;;11.10;94.17;97909.47;5190720;22;20563;-85
2024/02/16 03:00:10;;;;;;;7.40;6.10;;;;;;;11.06;96.21;97908.03;5189850;22;20571;-85
2024/02/16 03:02:16;;;;;;;9.63;6.40;;;;;;;11.07;96.22;97915.75;5162800;23;20587;-85
2024/02/16 03:04:20;;;;;;;13.33;5.97;;;;;;;11.08;95.35;97908.75;5163765;23;20576;-86
2024/02/16 03:06:23;;;;;;;7.80;5.50;;;;;;;11.09;95.40;97911.22;5162383;23;20620;-86
2024/02/16 03:08:27;;;;;;;9.70;6.33;;;;;;;11.09;95.59;97899.97;5162357;23;21143;-86
2024/02/16 03:10:34;;;;;;;8.80;5.50;;;;;;;11.07;95.47;97902.69;5163192;23;20576;-85
2024/02/16 03:12:39;;;;;;;8.47;5.63;;;;;;;11.06;94.39;97900.19;5189376;22;20989;-85
2024/02/16 03:14:42;;;;;;;14.20;5.97;;;;;;;11.05;95.80;97904.59;5162793;23;20611;-85
2024/02/16 03:16:45;;;;;;;8.83;5.50;;;;;;;11.06;95.29;97903.63;5162605;23;20611;-85
2024/02/16 03:18:48;;;;;;;9.37;5.50;;;;;;;11.08;96.36;97911.34;5188002;22;20578;-85
2024/02/16 03:20:52;;;;;;;9.60;5.63;;;;;;;11.08;94.85;97906.13;5161325;23;20580;-84
2024/02/16 03:22:55;;;;;;;10.83;5.20;;;;;;;11.09;94.96;97908.63;5162934;23;20631;-85
2024/02/16 03:24:59;;;;;;;8.00;5.40;;;;;;;11.10;96.00;97914.69;5161800;23;20592;-86
2024/02/16 03:27:02;;;;;;;8.50;5.00;;;;;;;11.09;96.32;97916.47;5188292;22;20559;-85
2024/02/16 03:29:06;;;;;;;7.13;5.03;;;;;;;11.09;96.47;97915.63;5162203;23;20584;-85
2024/02/16 03:31:17;;;;;;;8.07;5.53;;;;;;;11.10;95.53;97918.13;5161757;23;21146;-85
2024/02/16 03:33:21;;;;;;;7.40;5.30;;;;;;;11.10;95.10;97912.91;5162524;23;20592;-85
2024/02/16 03:35:25;;;;;;;11.00;5.87;;;;;;;11.09;95.67;97919.06;5188490;22;20608;-85
2024/02/16 03:37:28;;;;;;;9.33;5.37;;;;;;;11.07;95.34;97918.34;5136451;23;20589;-85
2024/02/16 03:39:31;;;;;;;7.83;5.10;;;;;;;11.09;96.35;97916.47;5189947;22;20558;-85
2024/02/16 03:41:35;;;;;;;8.13;5.40;;;;;;;11.13;96.03;97915.28;5162697;23;20642;-86
2024/02/16 03:43:38;;;;;;;8.13;5.50;;;;;;;11.13;95.11;97923.13;5160693;23;20692;-85
2024/02/16 03:45:43;;;;;;;9.67;5.70;;;;;;;11.15;95.02;97921.22;5161557;23;20615;-85
2024/02/16 03:47:48;;;;;;;7.40;6.07;;;;;;;11.17;94.80;97923.72;5187232;22;20581;-85
2024/02/16 03:49:53;;;;;;;9.40;6.80;;;;;;;11.18;94.73;97920.19;5189423;22;20770;-85
2024/02/16 03:51:56;;;;;;;8.20;5.60;;;;;;;11.17;95.86;97921.13;5163686;23;20568;-85
2024/02/16 03:53:58;;;;;;;8.07;6.20;;;;;;;11.15;94.79;97918.63;5162335;23;20576;-85
2024/02/16 03:56:02;;;;;;;9.13;6.27;;;;;;;11.14;96.72;97929.16;5189090;22;20555;-86
2024/02/16 03:58:05;;;;;;;13.20;6.43;;;;;;;11.14;95.05;97934.38;5161434;23;21260;-86
2024/02/16 04:00:09;;;;;;;7.70;5.17;;;;;;;11.14;95.17;97934.38;5136526;23;20593;-85
2024/02/16 04:02:18;;;;;;;6.90;4.30;;;;;;;11.13;94.49;97940.56;5161872;23;20583;-85
2024/02/16 04:04:21;;;;;;;15.37;4.90;;;;;;;11.10;94.64;97941.63;5188871;22;21117;-86
2024/02/16 04:06:26;;;;;;;5.90;4.40;;;;;;;11.08;96.19;97940.91;5188032;22;20610;-83
2024/02/16 04:08:30;;;;;;;6.27;4.80;;;;;;;11.06;96.36;97948.00;5188291;22;20551;-82
2024/02/16 04:10:33;;;;;;;7.00;4.47;;;;;;;11.04;94.46;97954.28;5161808;23;20639;-82
2024/02/16 04:12:36;;;;;;;6.37;4.63;;;;;;;11.02;94.04;97948.31;5189360;22;21048;-82
2024/02/16 04:14:41;;;;;;;7.47;4.57;;;;;;;11.02;95.62;97945.72;5136021;23;21164;-82
2024/02/16 04:16:44;;;;;;;8.17;5.00;;;;;;;10.99;95.88;97945.94;5160589;23;21192;-82
2024/02/16 04:18:49;;;;;;;6.80;4.60;;;;;;;10.99;94.75;97943.34;5135528;23;20628;-82
2024/02/16 04:20:52;;;;;;;7.07;4.67;;;;;;;11.00;95.62;97942.41;5160166;23;20616;-82
2024/02/16 04:22:55;;;;;;;9.43;4.90;;;;;;;11.00;95.97;97937.19;5161817;23;20652;-82
2024/02/16 04:24:59;;;;;;;5.77;4.40;;;;;;;10.99;94.26;97938.97;5162548;23;20618;-82
2024/02/16 04:27:02;;;;;;;7.37;4.97;;;;;;;11.00;94.99;97943.22;5161998;23;20596;-82
2024/02/16 04:29:09;;;;;;;5.33;4.43;;;;;;;10.98;93.96;97944.28;5162106;23;20564;-82
2024/02/16 04:31:11;;;;;;;5.90;4.50;;;;;;;10.97;96.23;97933.00;5189399;22;20584;-82
2024/02/16 04:33:14;;;;;;;11.60;4.60;;;;;;;10.98;94.76;97929.47;5161179;23;20595;-81
2024/02/16 04:35:19;;;;;;;6.17;4.50;;;;;;;11.00;94.76;97938.00;5161877;23;20682;-82
2024/02/16 04:37:23;;;;;;;8.90;5.17;;;;;;;11.03;94.47;97940.38;5188027;22;21213;-82
2024/02/16 04:39:26;;;;;;;9.13;4.33;;;;;;;11.05;95.99;97946.34;5160294;23;20576;-82
2024/02/16 04:41:29;;;;;;;9.47;4.63;;;;;;;11.06;95.20;97949.78;5162732;23;20607;-82
2024/02/16 04:43:33;;;;;;;6.10;4.30;;;;;;;11.06;95.65;97948.00;5187654;22;20674;-82
2024/02/16 04:45:36;;;;;;;7.63;4.17;;;;;;;11.08;95.76;97950.50;5187493;22;20682;-82
2024/02/16 04:47:40;;;;;;;7.20;4.57;;;;;;;11.09;95.71;97952.16;5185600;22;20587;-82
2024/02/16 04:49:44;;;;;;;6.77;4.73;;;;;;;11.09;94.96;97947.78;5162112;23;20687;-82
2024/02/16 04:51:48;;;;;;;6.43;4.10;;;;;;;11.08;95.36;97947.88;5187826;22;20583;-82
2024/02/16 04:53:52;;;;;;;6.70;4.27;;;;;;;11.09;94.03;97949.56;5189123;22;20575;-82
2024/02/16 04:55:55;;;;;;;6.27;4.40;;;;;;;11.11;95.98;97950.28;5136321;23;20605;-82
2024/02/16 04:57:58;;;;;;;7.87;4.37;;;;;;;11.11;95.39;97956.34;5135899;23;20665;-82
2024/02/16 05:00:01;;;;;;;8.03;4.67;;;;;;;11.12;95.54;97951.94;5162307;23;20937;-82
2024/02/16 05:02:06;;;;;;;6.60;4.20;;;;;;;11.11;95.01;97948.53;5188973;22;20638;-83
2024/02/16 05:04:10;;;;;;;7.43;4.70;;;;;;;11.11;95.13;97956.34;5162849;23;20571;-83
2024/02/16 05:06:15;;;;;;;6.00;4.20;;;;;;;11.12;94.72;97955.38;5160951;23;21204;-82
2024/02/16 05:08:20;;;;;;;6.50;4.73;;;;;;;11.12;94.47;97963.22;5161110;23;20580;-82
2024/02/16 05:10:23;;;;;;;6.50;4.37;;;;;;;11.12;94.52;97960.59;5187631;22;20571;-82
2024/02/16 05:12:27;;;;;;;6.53;4.27;;;;;;;11.14;96.29;97961.34;5161267;23;20584;-82
2024/02/16 05:14:29;;;;;;;6.80;4.53;;;;;;;11.14;96.21;97971.78;5161210;23;20592;-82
2024/02/16 05:16:32;;;;;;;8.57;5.77;;;;;;;11.16;95.99;97966.47;5160512;23;20920;-82
2024/02/16 05:18:36;;;;;;;8.10;4.80;;;;;;;11.16;94.97;97966.47;5136864;23;20666;-82
2024/02/16 05:20:39;;;;;;;8.33;4.87;;;;;;;11.15;94.25;97967.38;5161583;23;20651;-82
2024/02/16 05:22:45;;;;;;;7.50;4.93;;;;;;;11.15;96.09;97968.22;5136825;23;20650;-82
2024/02/16 05:24:50;;;;;;;6.23;4.70;;;;;;;11.15;94.34;97960.38;5187963;22;21197;-82
2024/02/16 05:26:54;;;;;;;12.93;4.80;;;;;;;11.14;94.41;97968.31;5160235;23;20611;-82
2024/02/16 05:28:57;;;;;;;9.10;5.10;;;;;;;11.11;95.41;97961.56;5161726;23;20572;-82
2024/02/16 05:31:08;;;;;;;6.23;4.60;;;;;;;11.11;96.01;97961.56;5162774;23;21052;-82
2024/02/16 05:33:13;;;;;;;6.80;4.90;;;;;;;11.13;95.29;97971.91;5161572;23;20659;-83
2024/02/16 05:35:17;;;;;;;6.80;4.60;;;;;;;11.12;95.85;97973.66;5160555;23;20607;-82
2024/02/16 05:37:22;;;;;;;9.00;4.90;;;;;;;11.12;96.14;97971.03;5189040;22;20582;-82
2024/02/16 05:39:31;;;;;;;8.77;5.20;;;;;;;11.13;95.88;97967.50;5163922;23;20621;-82
2024/02/16 05:41:37;;;;;;;8.70;4.97;;;;;;;11.13;94.65;97970.09;5162924;23;20571;-83
2024/02/16 05:43:40;;;;;;;8.33;5.03;;;;;;;11.12;95.53;97968.44;5162317;23;20594;-82
2024/02/16 05:45:43;;;;;;;9.30;5.40;;;;;;;11.13;95.51;97974.50;5161595;23;21115;-83
2024/02/16 05:47:47;;;;;;;9.03;5.20;;;;;;;11.12;95.84;97963.22;5163450;23;20572;-82
2024/02/16 05:49:50;;;;;;;8.57;5.40;;;;;;;11.12;96.35;97975.44;5189419;22;20587;-82
2024/02/16 05:54:21;;;;;;;7.63;4.43;;;;;;;11.09;96.69;97979.09;5165009;23;20688;-82
2024/02/16 05:56:25;;;;;;;8.73;5.20;;;;;;;11.10;95.61;97978.16;5138256;23;20656;-82
2024/02/16 05:58:30;;;;;;;5.63;4.00;;;;;;;11.11;96.61;97982.44;5189320;22;20603;-82
2024/02/16 06:00:34;;;;;;;7.10;4.43;;;;;;;11.12;96.18;97986.69;5138343;23;20580;-82
2024/02/16 06:02:37;;;;;;;7.30;4.63;;;;;;;11.12;96.75;97985.88;5163290;23;20575;-82
2024/02/16 06:04:40;;;;;;;6.27;4.20;;;;;;;11.11;95.47;97994.63;5162407;23;20584;-82
2024/02/16 06:06:42;;;;;;;7.93;4.40;;;;;;;11.10;95.93;97993.81;5190108;22;20983;-82
2024/02/16 06:08:46;;;;;;;6.70;4.10;;;;;;;11.09;96.75;97979.09;5162133;23;20565;-82
2024/02/16 06:10:53;;;;;;;5.67;3.90;;;;;;;11.09;95.36;97988.72;5163126;23;20615;-82
2024/02/16 06:12:56;;;;;;;4.90;3.83;;;;;;;11.09;96.91;97984.31;5162206;23;20583;-82
2024/02/16 06:15:00;;;;;;;5.23;4.40;;;;;;;11.08;96.69;97993.09;5162998;23;21010;-82
2024/02/16 06:17:03;;;;;;;8.10;4.37;;;;;;;11.09;96.32;97986.09;5162333;23;20947;-82
2024/02/16 06:19:08;;;;;;;5.63;3.63;;;;;;;11.11;97.01;97995.50;5163782;23;21116;-81
2024/02/16 06:21:13;;;;;;;7.10;3.90;;;;;;;11.10;95.09;97993.00;5162030;23;20635;-82
2024/02/16 06:23:17;;;;;;;4.70;3.70;;;;;;;11.10;95.00;97996.44;5160123;23;21187;-82
2024/02/16 06:25:20;;;;;;;7.20;4.67;;;;;;;11.09;96.19;97991.31;5162952;23;21131;-82
2024/02/16 06:27:24;;;;;;;5.03;3.90;;;;;;;11.09;96.74;98010.41;5189244;22;20633;-85
2024/02/16 06:29:28;;;;;;;6.60;4.57;;;;;;;11.08;96.01;98003.53;5189979;22;20566;-85
2024/02/16 06:31:33;;;;;;;6.13;4.20;;;;;;;11.09;95.90;98012.19;5137938;23;20588;-85
2024/02/16 06:33:36;;;;;;;7.37;4.53;;;;;;;11.09;95.53;98013.03;5189014;22;20587;-85
2024/02/16 06:35:40;;;;;;;5.50;4.30;;;;;;;11.08;95.18;98023.56;5189613;22;20587;-85
2024/02/16 06:37:43;;;;;;;6.30;4.50;;;;;;;11.07;95.45;98014.91;5136789;23;21150;-86
2024/02/16 06:39:46;;;;;;;6.47;4.47;;;;;;;11.06;95.08;98026.28;5163993;23;20580;-85
2024/02/16 06:41:50;;;;;;;7.10;4.40;;;;;;;11.06;94.84;98030.69;5138266;23;20569;-85
2024/02/16 06:43:53;;;;;;;6.73;4.27;;;;;;;11.04;95.16;98025.56;5162890;23;20941;-86
2024/02/16 06:45:56;;;;;;;7.50;4.50;;;;;;;11.06;95.03;98025.47;5161531;23;20576;-86
2024/02/16 06:48:01;;;;;;;8.00;3.70;;;;;;;11.06;95.01;98025.47;5158399;23;20618;-85
2024/02/16 06:50:05;;;;;;;5.57;3.67;;;;;;;11.06;95.08;98030.69;5163040;23;20579;-85
2024/02/16 06:52:10;;;;;;;5.07;4.20;;;;;;;11.08;96.12;98036.63;5191074;22;20571;-86
2024/02/16 06:54:14;;;;;;;5.27;4.30;;;;;;;11.07;95.53;98035.78;5163935;23;20583;-85
2024/02/16 06:56:18;;;;;;;5.27;3.90;;;;;;;11.07;95.62;98037.59;5137134;23;20624;-85
2024/02/16 06:58:21;;;;;;;5.43;4.30;;;;;;;11.06;94.41;98030.69;5163168;23;20580;-85
2024/02/16 07:00:24;;;;;;;5.43;4.37;;;;;;;11.05;94.95;98037.69;5138236;23;20595;-86
2024/02/16 07:02:27;;;;;;;7.10;4.30;;;;;;;11.05;94.99;98040.28;5188796;22;21167;-85
2024/02/16 07:04:32;;;;;;;5.87;4.10;;;;;;;11.03;95.24;98041.34;5190643;22;21133;-85
2024/02/16 07:06:35;;;;;;;5.00;3.87;;;;;;;11.03;94.39;98041.34;5188285;22;21150;-86
2024/02/16 07:08:38;;;;;;;5.60;3.50;;;;;;;11.05;96.10;98049.88;5137085;23;20693;-85
2024/02/16 07:10:42;;;;;;;8.30;4.20;;;;;;;11.07;95.03;98048.03;5163594;23;20642;-85
2024/02/16 07:12:45;;;;;;;9.30;4.67;;;;;;;11.10;94.88;98046.00;5160942;23;20695;-85
2024/02/16 07:14:50;;;;;;;5.53;4.27;;;;;;;11.13;96.15;98051.03;5188247;22;20567;-85
2024/02/16 07:16:53;;;;;;;11.90;6.10;;;;;;;11.16;94.68;98058.63;5159969;23;20612;-85
2024/02/16 07:18:56;;;;;;;5.00;4.13;;;;;;;11.25;95.68;98060.59;5186876;22;20674;-85
2024/02/16 07:21:01;;;;;;;7.27;5.00;;;;;;;11.37;96.43;98059.72;5187469;22;20578;-86
2024/02/16 07:23:04;;;;;;;7.53;4.97;;;;;;;11.46;95.84;98070.31;5162586;23;20595;-91
2024/02/16 07:25:08;;;;;;;7.60;5.17;;;;;;;11.54;95.29;98064.56;5188417;22;21043;-88
2024/02/16 07:27:11;;;;;;;8.37;4.87;;;;;;;11.60;96.16;98064.13;5161954;23;20671;-89
2024/02/16 07:29:16;;;;;;;7.73;5.40;;;;;;;11.65;94.06;98067.25;5134076;23;20685;-86
2024/02/16 07:31:20;;;;;;;7.90;5.53;;;;;;;11.60;93.00;98059.72;5186450;22;20563;-86
2024/02/16 07:33:24;;;;;;;9.97;8.43;;;;;;;11.58;92.97;98060.81;5187824;22;20949;-89
2024/02/16 07:35:28;;;;;;;23.03;20.83;;;;;;;11.56;94.84;98062.69;5190626;22;20650;-89
2024/02/16 07:37:33;;;;;;;10.80;9.70;;;;;;;11.57;93.65;98065.19;5161548;23;20612;-86
2024/02/16 07:39:36;;;;;;;6.77;5.17;;;;;;;11.59;94.13;98063.31;5138244;23;20593;-90
2024/02/16 07:41:40;;;;;;;8.83;5.43;;;;;;;11.64;94.56;98070.81;5163046;23;20569;-90
2024/02/16 07:43:43;;;;;;;13.10;9.40;;;;;;;11.77;93.72;98081.09;5138661;23;20589;-90
2024/02/16 07:45:46;;;;;;;13.53;9.50;;;;;;;11.85;93.10;98076.13;5162401;23;20700;-91
2024/02/16 07:47:50;;;;;;;14.60;9.20;;;;;;;11.82;93.62;98070.28;5163274;23;20576;-91
2024/02/16 07:49:54;;;;;;;17.97;10.60;;;;;;;11.80;93.93;98078.25;5137937;23;20577;-90
2024/02/16 07:51:57;;;;;;;16.00;10.20;;;;;;;11.79;94.58;98087.03;5160388;23;20599;-88
2024/02/16 07:54:03;;;;;;;11.90;7.50;;;;;;;11.78;92.79;98080.13;5137949;23;20726;-90
2024/02/16 07:56:06;;;;;;;9.73;5.67;;;;;;;11.78;93.21;98087.97;5163657;23;20591;-90
2024/02/16 07:58:10;;;;;;;6.87;5.37;;;;;;;11.77;94.10;98086.31;5133117;23;20648;-89
2024/02/16 08:00:15;;;;;;;7.00;5.53;;;;;;;11.79;93.63;98092.25;5190470;22;20629;-89
2024/02/16 08:02:19;;;;;;;8.10;6.10;;;;;;;11.80;93.59;98093.06;5163374;23;20619;-89
2024/02/16 08:04:22;;;;;;;9.07;6.13;;;;;;;11.77;94.11;98098.53;5188570;22;20579;-91
2024/02/16 08:06:26;;;;;;;6.60;4.87;;;;;;;11.79;93.29;98094.03;5160653;23;20719;-89
2024/02/16 08:08:30;;;;;;;6.93;5.03;;;;;;;11.79;94.57;98094.84;5160890;23;20565;-89
2024/02/16 08:10:35;;;;;;;7.50;5.70;;;;;;;11.81;92.80;98086.91;5160395;23;20568;-87
2024/02/16 08:12:38;;;;;;;8.27;5.03;;;;;;;11.81;95.09;98095.56;5163911;23;20594;-89
2024/02/16 08:14:41;;;;;;;8.10;4.87;;;;;;;11.82;95.08;98092.03;5163365;23;20577;-89
2024/02/16 08:16:45;;;;;;;7.20;5.47;;;;;;;11.83;93.68;98095.47;5189704;22;20592;-89
2024/02/16 08:18:48;;;;;;;8.47;5.83;;;;;;;11.83;94.77;98098.94;5162957;23;21116;-90
2024/02/16 08:20:53;;;;;;;8.97;6.20;;;;;;;11.82;93.71;98094.63;5162653;23;21226;-89
2024/02/16 08:22:57;;;;;;;9.27;5.80;;;;;;;11.84;93.41;98100.56;5162916;23;20627;-89
2024/02/16 08:25:01;;;;;;;10.40;6.47;;;;;;;11.86;92.57;98093.47;5162929;23;20576;-89
2024/02/16 08:27:06;;;;;;;10.40;6.00;;;;;;;11.90;93.56;98102.75;5161507;23;20581;-89
2024/02/16 08:29:09;;;;;;;8.50;6.17;;;;;;;11.95;93.43;98100.66;5190258;22;20561;-90
2024/02/16 08:31:17;;;;;;;13.43;6.97;;;;;;;12.00;93.74;98102.91;5162930;23;20920;-88
2024/02/16 08:33:21;;;;;;;11.03;7.37;;;;;;;12.05;94.63;98099.00;5160775;23;21254;-89
2024/02/16 08:35:24;;;;;;;12.83;7.50;;;;;;;12.12;93.15;98100.22;5161395;23;20560;-86
2024/02/16 08:37:28;;;;;;;11.77;7.40;;;;;;;12.19;94.09;98100.59;5186273;22;20702;-87
2024/02/16 08:39:31;;;;;;;11.83;7.47;;;;;;;12.30;92.35;98104.09;5160047;23;20960;-85
2024/02/16 08:41:35;;;;;;;10.70;6.87;;;;;;;12.42;93.00;98108.41;5134662;23;20615;-85
2024/02/16 08:43:40;;;;;;;10.63;6.53;;;;;;;12.56;93.16;98116.03;5158631;23;20572;-87
2024/02/16 08:45:43;;;;;;;13.30;7.17;;;;;;;12.67;92.99;98111.63;5185717;22;20577;-88
2024/02/16 08:47:46;;;;;;;7.93;6.27;;;;;;;12.78;93.32;98111.66;5161471;23;20659;-88
2024/02/16 08:49:54;;;;;;;13.23;6.50;;;;;;;12.94;93.12;98112.16;5162716;23;20572;-89
2024/02/16 08:51:59;;;;;;;12.40;7.80;;;;;;;13.14;92.37;98109.69;5189220;22;20612;-89
2024/02/16 08:54:04;;;;;;;17.00;10.53;;;;;;;13.45;92.04;98108.94;5189612;22;20544;-89
2024/02/16 08:56:12;;;;;;;10.57;8.60;;;;;;;13.74;91.28;98114.34;5162613;23;20577;-86
2024/02/16 08:58:15;;;;;;;11.67;8.80;;;;;;;14.11;90.54;98115.66;5162886;23;20608;-88
2024/02/16 09:00:20;;;;;;;11.53;8.07;;;;;;;14.42;88.42;98120.06;5162934;23;20572;-88
2024/02/16 09:02:23;;;;;;;13.77;9.27;;;;;;;14.62;87.97;98125.28;5162183;23;20680;-88
2024/02/16 09:04:25;;;;;;;11.93;9.23;;;;;;;14.54;86.46;98124.25;5163450;23;20614;-88
2024/02/16 09:06:29;;;;;;;9.57;7.87;;;;;;;14.42;86.64;98114.81;5137133;23;21247;-89
2024/02/16 09:08:33;;;;;;;9.47;7.77;;;;;;;14.41;86.81;98115.75;5162650;23;20860;-89
2024/02/16 09:10:37;;;;;;;11.20;8.13;;;;;;;14.44;87.46;98113.72;5164398;23;20616;-87
2024/02/16 09:12:40;;;;;;;13.10;7.37;;;;;;;14.51;87.29;98114.88;5164289;23;20584;-89
2024/02/16 09:14:44;;;;;;;11.30;7.60;;;;;;;14.57;87.70;98118.75;5164165;23;21001;-89
2024/02/16 09:16:52;;;;;;;12.50;7.40;;;;;;;14.82;87.66;98127.91;5163347;23;20570;-88
2024/02/16 09:18:55;;;;;;;9.33;7.13;;;;;;;15.05;86.81;98124.16;5163909;23;20606;-90
2024/02/16 09:20:58;;;;;;;10.90;7.20;;;;;;;15.27;87.49;98130.09;5190309;22;20664;-88
2024/02/16 09:23:01;;;;;;;8.30;6.77;;;;;;;15.48;85.80;98132.66;5164965;23;20578;-89
2024/02/16 09:25:05;;;;;;;15.17;8.43;;;;;;;15.67;86.07;98138.81;5164714;23;20682;-89
2024/02/16 09:27:09;;;;;;;14.97;9.57;;;;;;;15.71;84.10;98138.41;5162289;23;20621;-88
2024/02/16 09:29:12;;;;;;;12.73;9.40;;;;;;;15.72;84.57;98134.78;5164204;23;20571;-89
2024/02/16 09:31:16;;;;;;;14.40;9.50;;;;;;;15.74;84.42;98143.41;5163375;23;20567;-89
2024/02/16 09:33:21;;;;;;;13.03;9.17;;;;;;;15.75;84.41;98145.03;5139333;23;20974;-89
2024/02/16 09:35:25;;;;;;;10.90;7.60;;;;;;;15.82;85.86;98143.53;5164201;23;20614;-87
2024/02/16 09:37:28;;;;;;;9.10;6.63;;;;;;;15.87;84.49;98145.78;5137924;23;20580;-89
2024/02/16 09:39:32;;;;;;;6.10;4.50;;;;;;;15.95;80.53;98145.91;5138174;23;20614;-92
2024/02/16 09:41:36;;;;;;;5.97;4.17;;;;;;;16.04;79.14;98145.91;5189653;22;20620;-91
2024/02/16 09:43:40;;;;;;;6.03;4.57;;;;;;;16.13;79.09;98153.00;5190327;22;20566;-91